Cascade, Michigan
Current Conditions -  °F | °C
As of 10:36 AM on Friday 28 Nov 2014 (Local Time) from KGRR Reporting Station
Overcast Overcast  
Wind Chill: 14°   Ceiling: 2700
Heat Index: 24°   Visibility: 8mi
Dew Point: 17°   Wind: 10mph
Humidity: 75%   Direction: 180°S
Pressure: 30.26"   Gusts: NA
Location:  42.9365°N, 85.5426°W
Report Text: KGRR 281536Z 18009KT 8SM OVC027 M04/M08 A3026 RMK AO2 T10441083 $
Loading
Personal Weather Stations






























Interactive Weather Map New forecast layout! Learn more

10-Day Weather Forecast

Advertisements
Track Severe Weather on mobile